sensor_id;sensor_type;location;lat;lon;timestamp;P1;durP1;ratioP1;P2;durP2;ratioP2
63012;SDS011;62113;45.624;11.700;2023-06-22T00:00:52;17.95;;;11.38;;
63012;SDS011;62113;45.624;11.700;2023-06-22T00:03:19;15.90;;;11.60;;
63012;SDS011;62113;45.624;11.700;2023-06-22T00:05:46;19.50;;;11.52;;
63012;SDS011;62113;45.624;11.700;2023-06-22T00:08:12;13.95;;;11.25;;
63012;SDS011;62113;45.624;11.700;2023-06-22T00:13:04;15.30;;;12.65;;
63012;SDS011;62113;45.624;11.700;2023-06-22T00:15:30;16.70;;;13.95;;
63012;SDS011;62113;45.624;11.700;2023-06-22T00:17:56;16.90;;;13.85;;
63012;SDS011;62113;45.624;11.700;2023-06-22T00:20:22;19.58;;;15.10;;
63012;SDS011;62113;45.624;11.700;2023-06-22T00:22:52;23.75;;;15.00;;
63012;SDS011;62113;45.624;11.700;2023-06-22T00:25:21;21.33;;;16.48;;
63012;SDS011;62113;45.624;11.700;2023-06-22T00:27:47;18.15;;;14.55;;
63012;SDS011;62113;45.624;11.700;2023-06-22T00:30:13;28.02;;;14.25;;
63012;SDS011;62113;45.624;11.700;2023-06-22T00:32:43;18.25;;;14.50;;
63012;SDS011;62113;45.624;11.700;2023-06-22T00:35:09;16.25;;;14.10;;
63012;SDS011;62113;45.624;11.700;2023-06-22T00:37:35;23.25;;;16.00;;
63012;SDS011;62113;45.624;11.700;2023-06-22T00:40:02;20.75;;;14.40;;
63012;SDS011;62113;45.624;11.700;2023-06-22T00:42:30;22.30;;;14.35;;
63012;SDS011;62113;45.624;11.700;2023-06-22T00:44:55;18.52;;;13.93;;
63012;SDS011;62113;45.624;11.700;2023-06-22T00:47:21;24.08;;;14.43;;
63012;SDS011;62113;45.624;11.700;2023-06-22T00:49:48;21.50;;;14.77;;
63012;SDS011;62113;45.624;11.700;2023-06-22T00:52:19;19.38;;;15.55;;
63012;SDS011;62113;45.624;11.700;2023-06-22T00:54:50;21.77;;;14.93;;
63012;SDS011;62113;45.624;11.700;2023-06-22T00:57:16;20.10;;;14.80;;
63012;SDS011;62113;45.624;11.700;2023-06-22T00:59:47;25.30;;;15.95;;
63012;SDS011;62113;45.624;11.700;2023-06-22T01:02:13;19.60;;;16.10;;
63012;SDS011;62113;45.624;11.700;2023-06-22T01:04:39;21.33;;;16.02;;
63012;SDS011;62113;45.624;11.700;2023-06-22T01:12:21;20.05;;;15.90;;
63012;SDS011;62113;45.624;11.700;2023-06-22T01:14:50;22.77;;;17.40;;
63012;SDS011;62113;45.624;11.700;2023-06-22T01:17:23;22.67;;;18.73;;
63012;SDS011;62113;45.624;11.700;2023-06-22T01:19:50;26.23;;;19.98;;
63012;SDS011;62113;45.624;11.700;2023-06-22T01:22:22;25.38;;;19.77;;
63012;SDS011;62113;45.624;11.700;2023-06-22T01:30:40;26.83;;;19.52;;
63012;SDS011;62113;45.624;11.700;2023-06-22T01:33:07;26.52;;;21.45;;
63012;SDS011;62113;45.624;11.700;2023-06-22T01:35:36;31.77;;;21.48;;
63012;SDS011;62113;45.624;11.700;2023-06-22T01:38:03;27.15;;;21.00;;
63012;SDS011;62113;45.624;11.700;2023-06-22T01:42:55;34.33;;;21.80;;
63012;SDS011;62113;45.624;11.700;2023-06-22T01:45:21;25.45;;;18.92;;
63012;SDS011;62113;45.624;11.700;2023-06-22T01:47:46;31.40;;;22.23;;
63012;SDS011;62113;45.624;11.700;2023-06-22T01:50:12;23.02;;;18.30;;
63012;SDS011;62113;45.624;11.700;2023-06-22T01:52:38;29.70;;;20.92;;
63012;SDS011;62113;45.624;11.700;2023-06-22T01:55:03;22.45;;;19.85;;
63012;SDS011;62113;45.624;11.700;2023-06-22T01:57:30;20.17;;;17.95;;
63012;SDS011;62113;45.624;11.700;2023-06-22T02:02:22;26.88;;;19.27;;
63012;SDS011;62113;45.624;11.700;2023-06-22T02:04:58;29.33;;;19.67;;
63012;SDS011;62113;45.624;11.700;2023-06-22T02:07:29;23.77;;;19.80;;
63012;SDS011;62113;45.624;11.700;2023-06-22T02:09:58;23.60;;;18.15;;
63012;SDS011;62113;45.624;11.700;2023-06-22T02:12:26;25.70;;;19.23;;
63012;SDS011;62113;45.624;11.700;2023-06-22T02:14:54;25.42;;;19.23;;
63012;SDS011;62113;45.624;11.700;2023-06-22T02:17:20;20.90;;;17.70;;
63012;SDS011;62113;45.624;11.700;2023-06-22T02:19:46;22.05;;;18.65;;
63012;SDS011;62113;45.624;11.700;2023-06-22T02:22:12;22.60;;;17.85;;
63012;SDS011;62113;45.624;11.700;2023-06-22T02:24:38;25.88;;;19.45;;
63012;SDS011;62113;45.624;11.700;2023-06-22T02:27:04;22.95;;;18.10;;
63012;SDS011;62113;45.624;11.700;2023-06-22T02:29:32;20.95;;;18.30;;
63012;SDS011;62113;45.624;11.700;2023-06-22T02:31:58;23.88;;;18.15;;
63012;SDS011;62113;45.624;11.700;2023-06-22T02:34:24;26.33;;;19.63;;
63012;SDS011;62113;45.624;11.700;2023-06-22T02:36:49;29.02;;;18.42;;
63012;SDS011;62113;45.624;11.700;2023-06-22T02:39:22;25.80;;;19.23;;
63012;SDS011;62113;45.624;11.700;2023-06-22T02:41:49;28.17;;;19.05;;
63012;SDS011;62113;45.624;11.700;2023-06-22T02:44:19;25.77;;;18.52;;
63012;SDS011;62113;45.624;11.700;2023-06-22T02:46:45;22.95;;;18.63;;
63012;SDS011;62113;45.624;11.700;2023-06-22T02:49:11;22.02;;;17.50;;
63012;SDS011;62113;45.624;11.700;2023-06-22T02:51:41;32.00;;;19.30;;
63012;SDS011;62113;45.624;11.700;2023-06-22T02:54:09;27.77;;;18.23;;
63012;SDS011;62113;45.624;11.700;2023-06-22T02:56:35;34.40;;;19.30;;
63012;SDS011;62113;45.624;11.700;2023-06-22T03:01:28;23.05;;;17.88;;
63012;SDS011;62113;45.624;11.700;2023-06-22T03:03:55;24.60;;;19.02;;
63012;SDS011;62113;45.624;11.700;2023-06-22T03:06:21;30.38;;;20.33;;
63012;SDS011;62113;45.624;11.700;2023-06-22T03:08:51;23.45;;;18.70;;
63012;SDS011;62113;45.624;11.700;2023-06-22T03:11:17;27.80;;;18.42;;
63012;SDS011;62113;45.624;11.700;2023-06-22T03:13:43;25.45;;;17.67;;
63012;SDS011;62113;45.624;11.700;2023-06-22T03:16:08;27.13;;;18.45;;
63012;SDS011;62113;45.624;11.700;2023-06-22T03:18:34;25.13;;;19.67;;
63012;SDS011;62113;45.624;11.700;2023-06-22T03:21:00;24.07;;;19.03;;
63012;SDS011;62113;45.624;11.700;2023-06-22T03:23:27;27.83;;;19.25;;
63012;SDS011;62113;45.624;11.700;2023-06-22T03:25:52;29.30;;;21.27;;
63012;SDS011;62113;45.624;11.700;2023-06-22T03:28:20;22.58;;;19.75;;
63012;SDS011;62113;45.624;11.700;2023-06-22T03:30:46;29.95;;;22.52;;
63012;SDS011;62113;45.624;11.700;2023-06-22T03:33:12;27.38;;;22.65;;
63012;SDS011;62113;45.624;11.700;2023-06-22T03:35:38;27.52;;;22.15;;
63012;SDS011;62113;45.624;11.700;2023-06-22T03:38:03;34.10;;;22.97;;
63012;SDS011;62113;45.624;11.700;2023-06-22T03:40:29;34.50;;;24.55;;
63012;SDS011;62113;45.624;11.700;2023-06-22T03:42:55;29.47;;;22.87;;
63012;SDS011;62113;45.624;11.700;2023-06-22T03:45:20;30.55;;;23.30;;
63012;SDS011;62113;45.624;11.700;2023-06-22T03:47:46;31.67;;;22.97;;
63012;SDS011;62113;45.624;11.700;2023-06-22T03:50:12;32.33;;;23.50;;
63012;SDS011;62113;45.624;11.700;2023-06-22T03:52:38;35.88;;;23.33;;
63012;SDS011;62113;45.624;11.700;2023-06-22T03:55:05;34.67;;;22.33;;
63012;SDS011;62113;45.624;11.700;2023-06-22T03:57:31;32.42;;;23.20;;
63012;SDS011;62113;45.624;11.700;2023-06-22T03:59:57;33.80;;;22.33;;
63012;SDS011;62113;45.624;11.700;2023-06-22T04:02:23;30.77;;;23.83;;
63012;SDS011;62113;45.624;11.700;2023-06-22T04:04:49;29.23;;;23.02;;
63012;SDS011;62113;45.624;11.700;2023-06-22T04:07:15;36.30;;;24.15;;
63012;SDS011;62113;45.624;11.700;2023-06-22T04:09:41;32.80;;;24.13;;
63012;SDS011;62113;45.624;11.700;2023-06-22T04:12:07;31.02;;;24.35;;
63012;SDS011;62113;45.624;11.700;2023-06-22T04:14:32;33.50;;;24.58;;
63012;SDS011;62113;45.624;11.700;2023-06-22T04:16:58;28.25;;;21.83;;
63012;SDS011;62113;45.624;11.700;2023-06-22T04:19:23;35.33;;;25.20;;
63012;SDS011;62113;45.624;11.700;2023-06-22T04:21:49;32.43;;;22.93;;
63012;SDS011;62113;45.624;11.700;2023-06-22T04:24:15;20.15;;;15.63;;
63012;SDS011;62113;45.624;11.700;2023-06-22T04:26:40;22.80;;;17.02;;
63012;SDS011;62113;45.624;11.700;2023-06-22T04:29:10;36.15;;;24.13;;
63012;SDS011;62113;45.624;11.700;2023-06-22T04:31:36;34.65;;;22.77;;
63012;SDS011;62113;45.624;11.700;2023-06-22T04:34:03;34.03;;;21.98;;
63012;SDS011;62113;45.624;11.700;2023-06-22T04:36:36;28.95;;;17.30;;
63012;SDS011;62113;45.624;11.700;2023-06-22T04:39:12;23.92;;;16.92;;
63012;SDS011;62113;45.624;11.700;2023-06-22T04:41:39;26.33;;;18.20;;
63012;SDS011;62113;45.624;11.700;2023-06-22T04:44:11;25.48;;;20.08;;
63012;SDS011;62113;45.624;11.700;2023-06-22T04:46:38;40.17;;;23.10;;
63012;SDS011;62113;45.624;11.700;2023-06-22T04:49:07;29.38;;;21.55;;
63012;SDS011;62113;45.624;11.700;2023-06-22T04:51:40;26.17;;;21.00;;
63012;SDS011;62113;45.624;11.700;2023-06-22T04:54:07;33.47;;;21.48;;
63012;SDS011;62113;45.624;11.700;2023-06-22T04:56:33;28.27;;;18.17;;
63012;SDS011;62113;45.624;11.700;2023-06-22T04:58:59;26.10;;;15.75;;
63012;SDS011;62113;45.624;11.700;2023-06-22T05:01:26;25.33;;;16.77;;
63012;SDS011;62113;45.624;11.700;2023-06-22T05:03:51;23.95;;;16.23;;
63012;SDS011;62113;45.624;11.700;2023-06-22T05:06:23;22.95;;;13.43;;
63012;SDS011;62113;45.624;11.700;2023-06-22T05:08:51;26.00;;;18.20;;
63012;SDS011;62113;45.624;11.700;2023-06-22T05:11:25;27.38;;;15.95;;
63012;SDS011;62113;45.624;11.700;2023-06-22T05:13:51;25.50;;;16.70;;
63012;SDS011;62113;45.624;11.700;2023-06-22T05:16:18;22.77;;;14.23;;
63012;SDS011;62113;45.624;11.700;2023-06-22T05:18:48;20.95;;;15.15;;
63012;SDS011;62113;45.624;11.700;2023-06-22T05:21:21;23.45;;;14.93;;
63012;SDS011;62113;45.624;11.700;2023-06-22T05:23:47;25.95;;;14.93;;
63012;SDS011;62113;45.624;11.700;2023-06-22T05:26:13;23.67;;;12.80;;
63012;SDS011;62113;45.624;11.700;2023-06-22T05:28:39;35.92;;;16.40;;
63012;SDS011;62113;45.624;11.700;2023-06-22T05:31:04;31.35;;;15.23;;
63012;SDS011;62113;45.624;11.700;2023-06-22T05:33:30;23.98;;;12.90;;
63012;SDS011;62113;45.624;11.700;2023-06-22T05:35:55;27.23;;;14.52;;
63012;SDS011;62113;45.624;11.700;2023-06-22T05:38:21;31.20;;;16.25;;
63012;SDS011;62113;45.624;11.700;2023-06-22T05:40:47;29.27;;;17.23;;
63012;SDS011;62113;45.624;11.700;2023-06-22T05:43:12;21.90;;;15.30;;
63012;SDS011;62113;45.624;11.700;2023-06-22T05:45:38;28.55;;;16.63;;
63012;SDS011;62113;45.624;11.700;2023-06-22T05:48:04;23.50;;;15.18;;
63012;SDS011;62113;45.624;11.700;2023-06-22T05:50:30;30.25;;;15.05;;
63012;SDS011;62113;45.624;11.700;2023-06-22T05:52:55;23.00;;;14.00;;
63012;SDS011;62113;45.624;11.700;2023-06-22T05:55:21;17.83;;;13.95;;
63012;SDS011;62113;45.624;11.700;2023-06-22T05:57:46;15.57;;;12.15;;
63012;SDS011;62113;45.624;11.700;2023-06-22T06:00:12;19.20;;;12.45;;
63012;SDS011;62113;45.624;11.700;2023-06-22T06:02:39;18.27;;;13.15;;
63012;SDS011;62113;45.624;11.700;2023-06-22T06:05:09;24.38;;;13.90;;
63012;SDS011;62113;45.624;11.700;2023-06-22T06:07:36;21.88;;;12.95;;
63012;SDS011;62113;45.624;11.700;2023-06-22T06:10:02;24.30;;;13.77;;
63012;SDS011;62113;45.624;11.700;2023-06-22T06:12:29;22.75;;;15.65;;
63012;SDS011;62113;45.624;11.700;2023-06-22T06:14:55;25.42;;;15.75;;
63012;SDS011;62113;45.624;11.700;2023-06-22T06:17:21;27.58;;;16.30;;
63012;SDS011;62113;45.624;11.700;2023-06-22T06:19:47;28.70;;;16.48;;
63012;SDS011;62113;45.624;11.700;2023-06-22T06:22:12;25.10;;;16.02;;
63012;SDS011;62113;45.624;11.700;2023-06-22T06:24:38;38.80;;;16.63;;
63012;SDS011;62113;45.624;11.700;2023-06-22T06:27:04;21.33;;;14.82;;
63012;SDS011;62113;45.624;11.700;2023-06-22T06:29:30;20.30;;;13.07;;
63012;SDS011;62113;45.624;11.700;2023-06-22T06:31:56;23.83;;;14.82;;
63012;SDS011;62113;45.624;11.700;2023-06-22T06:34:22;26.85;;;15.30;;
63012;SDS011;62113;45.624;11.700;2023-06-22T06:36:47;26.15;;;16.92;;
63012;SDS011;62113;45.624;11.700;2023-06-22T06:39:13;25.92;;;15.00;;
63012;SDS011;62113;45.624;11.700;2023-06-22T06:41:39;21.30;;;15.50;;
63012;SDS011;62113;45.624;11.700;2023-06-22T06:44:05;23.40;;;14.02;;
63012;SDS011;62113;45.624;11.700;2023-06-22T06:51:21;26.05;;;15.93;;
63012;SDS011;62113;45.624;11.700;2023-06-22T06:53:47;25.45;;;15.68;;
63012;SDS011;62113;45.624;11.700;2023-06-22T07:01:07;25.15;;;14.68;;
63012;SDS011;62113;45.624;11.700;2023-06-22T07:05:59;22.60;;;13.77;;
63012;SDS011;62113;45.624;11.700;2023-06-22T07:08:25;25.08;;;14.05;;
63012;SDS011;62113;45.624;11.700;2023-06-22T07:10:51;24.42;;;14.15;;
63012;SDS011;62113;45.624;11.700;2023-06-22T07:13:17;25.48;;;14.63;;
63012;SDS011;62113;45.624;11.700;2023-06-22T07:15:43;24.98;;;14.23;;
63012;SDS011;62113;45.624;11.700;2023-06-22T07:20:34;25.45;;;14.02;;
63012;SDS011;62113;45.624;11.700;2023-06-22T07:23:00;19.95;;;14.27;;
63012;SDS011;62113;45.624;11.700;2023-06-22T07:25:26;28.45;;;15.15;;
63012;SDS011;62113;45.624;11.700;2023-06-22T07:28:02;21.50;;;13.73;;
63012;SDS011;62113;45.624;11.700;2023-06-22T07:30:29;22.98;;;12.15;;
63012;SDS011;62113;45.624;11.700;2023-06-22T07:32:56;22.88;;;15.48;;
63012;SDS011;62113;45.624;11.700;2023-06-22T07:35:22;26.17;;;15.82;;
63012;SDS011;62113;45.624;11.700;2023-06-22T07:37:47;26.33;;;15.85;;
63012;SDS011;62113;45.624;11.700;2023-06-22T07:40:13;24.95;;;14.32;;
63012;SDS011;62113;45.624;11.700;2023-06-22T07:42:39;28.23;;;15.18;;
63012;SDS011;62113;45.624;11.700;2023-06-22T07:45:04;17.38;;;12.52;;
63012;SDS011;62113;45.624;11.700;2023-06-22T07:47:33;24.70;;;14.02;;
63012;SDS011;62113;45.624;11.700;2023-06-22T07:50:00;25.55;;;15.38;;
63012;SDS011;62113;45.624;11.700;2023-06-22T07:52:26;22.55;;;14.65;;
63012;SDS011;62113;45.624;11.700;2023-06-22T07:54:55;24.50;;;13.85;;
63012;SDS011;62113;45.624;11.700;2023-06-22T07:57:21;35.05;;;17.15;;
63012;SDS011;62113;45.624;11.700;2023-06-22T07:59:47;19.17;;;12.32;;
63012;SDS011;62113;45.624;11.700;2023-06-22T08:02:12;19.02;;;12.77;;
63012;SDS011;62113;45.624;11.700;2023-06-22T08:04:38;24.25;;;14.10;;
63012;SDS011;62113;45.624;11.700;2023-06-22T08:07:04;23.25;;;14.05;;
63012;SDS011;62113;45.624;11.700;2023-06-22T08:09:31;23.63;;;13.73;;
63012;SDS011;62113;45.624;11.700;2023-06-22T08:11:58;21.70;;;14.35;;
63012;SDS011;62113;45.624;11.700;2023-06-22T08:14:27;22.10;;;13.05;;
63012;SDS011;62113;45.624;11.700;2023-06-22T08:16:54;20.65;;;11.05;;
63012;SDS011;62113;45.624;11.700;2023-06-22T08:19:20;31.40;;;11.63;;
63012;SDS011;62113;45.624;11.700;2023-06-22T08:21:46;22.02;;;11.85;;
63012;SDS011;62113;45.624;11.700;2023-06-22T08:24:11;20.38;;;10.95;;
63012;SDS011;62113;45.624;11.700;2023-06-22T08:26:37;24.98;;;10.75;;
63012;SDS011;62113;45.624;11.700;2023-06-22T08:29:03;19.20;;;10.18;;
63012;SDS011;62113;45.624;11.700;2023-06-22T08:31:29;27.25;;;11.35;;
63012;SDS011;62113;45.624;11.700;2023-06-22T08:33:55;16.17;;;9.10;;
63012;SDS011;62113;45.624;11.700;2023-06-22T08:36:21;18.25;;;9.23;;
63012;SDS011;62113;45.624;11.700;2023-06-22T08:38:47;26.92;;;11.45;;
63012;SDS011;62113;45.624;11.700;2023-06-22T08:41:16;17.05;;;10.48;;
63012;SDS011;62113;45.624;11.700;2023-06-22T08:43:43;19.60;;;11.38;;
63012;SDS011;62113;45.624;11.700;2023-06-22T08:46:12;22.48;;;11.35;;
63012;SDS011;62113;45.624;11.700;2023-06-22T08:48:37;18.95;;;11.20;;
63012;SDS011;62113;45.624;11.700;2023-06-22T08:53:29;11.98;;;8.00;;
63012;SDS011;62113;45.624;11.700;2023-06-22T08:55:54;23.05;;;9.77;;
63012;SDS011;62113;45.624;11.700;2023-06-22T08:58:20;21.95;;;12.00;;
63012;SDS011;62113;45.624;11.700;2023-06-22T09:03:12;27.40;;;12.52;;
63012;SDS011;62113;45.624;11.700;2023-06-22T09:05:38;19.65;;;11.98;;
63012;SDS011;62113;45.624;11.700;2023-06-22T09:08:04;24.50;;;11.50;;
63012;SDS011;62113;45.624;11.700;2023-06-22T09:12:56;20.92;;;10.48;;
63012;SDS011;62113;45.624;11.700;2023-06-22T09:15:22;22.52;;;10.82;;
63012;SDS011;62113;45.624;11.700;2023-06-22T09:17:47;21.00;;;10.45;;
63012;SDS011;62113;45.624;11.700;2023-06-22T09:20:13;20.35;;;10.93;;
63012;SDS011;62113;45.624;11.700;2023-06-22T09:22:39;24.70;;;11.57;;
63012;SDS011;62113;45.624;11.700;2023-06-22T09:25:05;16.88;;;9.45;;
63012;SDS011;62113;45.624;11.700;2023-06-22T09:27:31;20.70;;;9.80;;
63012;SDS011;62113;45.624;11.700;2023-06-22T09:29:56;23.33;;;10.32;;
63012;SDS011;62113;45.624;11.700;2023-06-22T09:32:23;18.02;;;8.35;;
63012;SDS011;62113;45.624;11.700;2023-06-22T09:34:50;15.45;;;7.47;;
63012;SDS011;62113;45.624;11.700;2023-06-22T09:37:15;14.23;;;8.35;;
63012;SDS011;62113;45.624;11.700;2023-06-22T09:39:41;11.80;;;7.63;;
63012;SDS011;62113;45.624;11.700;2023-06-22T09:42:07;20.92;;;9.15;;
63012;SDS011;62113;45.624;11.700;2023-06-22T09:44:33;11.43;;;7.10;;
63012;SDS011;62113;45.624;11.700;2023-06-22T09:46:58;14.23;;;8.05;;
63012;SDS011;62113;45.624;11.700;2023-06-22T09:49:24;13.73;;;8.55;;
63012;SDS011;62113;45.624;11.700;2023-06-22T09:51:50;18.23;;;8.52;;
63012;SDS011;62113;45.624;11.700;2023-06-22T09:54:16;20.92;;;8.80;;
63012;SDS011;62113;45.624;11.700;2023-06-22T09:56:41;18.20;;;9.13;;
63012;SDS011;62113;45.624;11.700;2023-06-22T09:59:07;21.23;;;8.30;;
63012;SDS011;62113;45.624;11.700;2023-06-22T10:01:33;20.92;;;8.82;;
63012;SDS011;62113;45.624;11.700;2023-06-22T10:03:58;15.77;;;9.05;;
63012;SDS011;62113;45.624;11.700;2023-06-22T10:06:24;16.20;;;9.25;;
63012;SDS011;62113;45.624;11.700;2023-06-22T10:08:52;20.25;;;8.30;;
63012;SDS011;62113;45.624;11.700;2023-06-22T10:11:18;16.58;;;9.75;;
63012;SDS011;62113;45.624;11.700;2023-06-22T10:13:44;22.60;;;10.13;;
63012;SDS011;62113;45.624;11.700;2023-06-22T10:16:09;10.95;;;8.55;;
63012;SDS011;62113;45.624;11.700;2023-06-22T10:18:35;18.27;;;9.25;;
63012;SDS011;62113;45.624;11.700;2023-06-22T10:23:26;21.25;;;7.47;;
63012;SDS011;62113;45.624;11.700;2023-06-22T10:25:52;13.85;;;7.95;;
63012;SDS011;62113;45.624;11.700;2023-06-22T10:28:18;18.55;;;9.77;;
63012;SDS011;62113;45.624;11.700;2023-06-22T10:30:43;15.82;;;8.55;;
63012;SDS011;62113;45.624;11.700;2023-06-22T10:33:09;19.48;;;7.95;;
63012;SDS011;62113;45.624;11.700;2023-06-22T10:35:36;24.83;;;8.15;;
63012;SDS011;62113;45.624;11.700;2023-06-22T10:38:05;19.98;;;7.82;;
63012;SDS011;62113;45.624;11.700;2023-06-22T10:40:31;22.80;;;7.10;;
63012;SDS011;62113;45.624;11.700;2023-06-22T10:42:57;14.32;;;6.03;;
63012;SDS011;62113;45.624;11.700;2023-06-22T10:47:48;15.13;;;6.75;;
63012;SDS011;62113;45.624;11.700;2023-06-22T10:50:14;17.25;;;6.30;;
63012;SDS011;62113;45.624;11.700;2023-06-22T10:52:39;10.10;;;6.10;;
63012;SDS011;62113;45.624;11.700;2023-06-22T10:55:09;18.55;;;6.20;;
63012;SDS011;62113;45.624;11.700;2023-06-22T10:57:35;7.97;;;5.60;;
63012;SDS011;62113;45.624;11.700;2023-06-22T11:00:02;23.02;;;6.22;;
63012;SDS011;62113;45.624;11.700;2023-06-22T11:02:30;10.55;;;5.60;;
63012;SDS011;62113;45.624;11.700;2023-06-22T11:04:56;19.98;;;6.28;;
63012;SDS011;62113;45.624;11.700;2023-06-22T11:07:25;18.20;;;6.22;;
63012;SDS011;62113;45.624;11.700;2023-06-22T11:09:52;13.32;;;5.30;;
63012;SDS011;62113;45.624;11.700;2023-06-22T11:12:18;11.13;;;5.65;;
63012;SDS011;62113;45.624;11.700;2023-06-22T11:14:43;13.60;;;6.10;;
63012;SDS011;62113;45.624;11.700;2023-06-22T11:17:09;14.45;;;5.70;;
63012;SDS011;62113;45.624;11.700;2023-06-22T11:19:34;12.77;;;5.75;;
63012;SDS011;62113;45.624;11.700;2023-06-22T11:22:01;15.00;;;5.28;;
63012;SDS011;62113;45.624;11.700;2023-06-22T11:24:27;19.77;;;5.55;;
63012;SDS011;62113;45.624;11.700;2023-06-22T11:26:52;9.70;;;5.40;;
63012;SDS011;62113;45.624;11.700;2023-06-22T11:31:43;10.02;;;5.25;;
63012;SDS011;62113;45.624;11.700;2023-06-22T11:34:09;15.38;;;5.40;;
63012;SDS011;62113;45.624;11.700;2023-06-22T11:36:35;13.13;;;5.38;;
63012;SDS011;62113;45.624;11.700;2023-06-22T11:39:00;7.15;;;5.00;;
63012;SDS011;62113;45.624;11.700;2023-06-22T11:41:26;17.42;;;6.22;;
63012;SDS011;62113;45.624;11.700;2023-06-22T11:43:52;16.40;;;6.03;;
63012;SDS011;62113;45.624;11.700;2023-06-22T11:46:17;9.50;;;5.25;;
63012;SDS011;62113;45.624;11.700;2023-06-22T11:48:43;12.00;;;5.25;;
63012;SDS011;62113;45.624;11.700;2023-06-22T11:51:09;10.60;;;5.25;;
63012;SDS011;62113;45.624;11.700;2023-06-22T11:53:34;13.13;;;5.90;;
63012;SDS011;62113;45.624;11.700;2023-06-22T11:56:00;13.35;;;5.40;;
63012;SDS011;62113;45.624;11.700;2023-06-22T11:58:26;22.40;;;5.22;;
63012;SDS011;62113;45.624;11.700;2023-06-22T12:00:53;9.70;;;5.22;;
63012;SDS011;62113;45.624;11.700;2023-06-22T12:03:19;12.20;;;5.68;;
63012;SDS011;62113;45.624;11.700;2023-06-22T12:05:46;13.27;;;4.97;;
63012;SDS011;62113;45.624;11.700;2023-06-22T12:08:12;10.18;;;4.78;;
63012;SDS011;62113;45.624;11.700;2023-06-22T12:10:38;12.85;;;5.32;;
63012;SDS011;62113;45.624;11.700;2023-06-22T12:13:04;11.80;;;4.97;;
63012;SDS011;62113;45.624;11.700;2023-06-22T12:15:30;11.27;;;5.13;;
63012;SDS011;62113;45.624;11.700;2023-06-22T12:17:55;19.85;;;5.85;;
63012;SDS011;62113;45.624;11.700;2023-06-22T12:20:21;14.77;;;5.35;;
63012;SDS011;62113;45.624;11.700;2023-06-22T12:22:47;11.02;;;5.03;;
63012;SDS011;62113;45.624;11.700;2023-06-22T12:25:13;11.88;;;4.90;;
63012;SDS011;62113;45.624;11.700;2023-06-22T12:27:38;13.10;;;5.15;;
63012;SDS011;62113;45.624;11.700;2023-06-22T12:30:04;9.98;;;5.35;;
63012;SDS011;62113;45.624;11.700;2023-06-22T12:32:30;7.63;;;5.07;;
63012;SDS011;62113;45.624;11.700;2023-06-22T12:34:56;16.42;;;5.25;;
63012;SDS011;62113;45.624;11.700;2023-06-22T12:37:22;10.55;;;5.32;;
63012;SDS011;62113;45.624;11.700;2023-06-22T12:39:48;13.85;;;5.53;;
63012;SDS011;62113;45.624;11.700;2023-06-22T12:42:15;13.57;;;5.40;;
63012;SDS011;62113;45.624;11.700;2023-06-22T12:44:41;13.90;;;5.63;;
63012;SDS011;62113;45.624;11.700;2023-06-22T12:47:07;10.43;;;5.43;;
63012;SDS011;62113;45.624;11.700;2023-06-22T12:49:36;11.23;;;5.40;;
63012;SDS011;62113;45.624;11.700;2023-06-22T12:52:02;13.15;;;5.32;;
63012;SDS011;62113;45.624;11.700;2023-06-22T12:54:28;15.15;;;5.90;;
63012;SDS011;62113;45.624;11.700;2023-06-22T12:56:54;11.43;;;4.85;;
63012;SDS011;62113;45.624;11.700;2023-06-22T12:59:20;13.15;;;5.25;;
63012;SDS011;62113;45.624;11.700;2023-06-22T13:01:46;15.63;;;5.68;;
63012;SDS011;62113;45.624;11.700;2023-06-22T13:04:11;13.48;;;5.93;;
63012;SDS011;62113;45.624;11.700;2023-06-22T13:06:40;22.25;;;6.00;;
63012;SDS011;62113;45.624;11.700;2023-06-22T13:09:12;9.25;;;5.50;;
63012;SDS011;62113;45.624;11.700;2023-06-22T13:11:38;22.85;;;5.43;;
63012;SDS011;62113;45.624;11.700;2023-06-22T13:14:04;12.50;;;5.90;;
63012;SDS011;62113;45.624;11.700;2023-06-22T13:16:29;13.95;;;5.30;;
63012;SDS011;62113;45.624;11.700;2023-06-22T13:18:55;21.42;;;5.50;;
63012;SDS011;62113;45.624;11.700;2023-06-22T13:21:20;13.70;;;5.47;;
63012;SDS011;62113;45.624;11.700;2023-06-22T13:23:46;11.95;;;5.35;;
63012;SDS011;62113;45.624;11.700;2023-06-22T13:26:12;17.73;;;6.03;;
63012;SDS011;62113;45.624;11.700;2023-06-22T13:28:37;12.05;;;5.78;;
63012;SDS011;62113;45.624;11.700;2023-06-22T13:31:03;16.10;;;5.97;;
63012;SDS011;62113;45.624;11.700;2023-06-22T13:33:29;11.23;;;5.38;;
63012;SDS011;62113;45.624;11.700;2023-06-22T13:35:54;15.25;;;5.50;;
63012;SDS011;62113;45.624;11.700;2023-06-22T13:38:20;12.13;;;5.43;;
63012;SDS011;62113;45.624;11.700;2023-06-22T13:40:45;12.52;;;5.75;;
63012;SDS011;62113;45.624;11.700;2023-06-22T13:43:12;12.02;;;5.38;;
63012;SDS011;62113;45.624;11.700;2023-06-22T13:45:38;12.63;;;5.40;;
63012;SDS011;62113;45.624;11.700;2023-06-22T13:48:04;10.85;;;5.35;;
63012;SDS011;62113;45.624;11.700;2023-06-22T13:50:29;15.82;;;5.70;;
63012;SDS011;62113;45.624;11.700;2023-06-22T13:52:55;13.95;;;5.28;;
63012;SDS011;62113;45.624;11.700;2023-06-22T13:55:21;18.23;;;5.70;;
63012;SDS011;62113;45.624;11.700;2023-06-22T13:57:48;17.17;;;6.18;;
63012;SDS011;62113;45.624;11.700;2023-06-22T14:00:15;15.40;;;6.25;;
63012;SDS011;62113;45.624;11.700;2023-06-22T14:02:41;10.23;;;5.63;;
63012;SDS011;62113;45.624;11.700;2023-06-22T14:05:07;12.57;;;5.85;;
63012;SDS011;62113;45.624;11.700;2023-06-22T14:07:33;23.08;;;6.35;;
63012;SDS011;62113;45.624;11.700;2023-06-22T14:09:59;12.35;;;5.72;;
63012;SDS011;62113;45.624;11.700;2023-06-22T14:12:25;12.68;;;5.57;;
63012;SDS011;62113;45.624;11.700;2023-06-22T14:14:51;9.80;;;6.03;;
63012;SDS011;62113;45.624;11.700;2023-06-22T14:17:17;9.90;;;5.55;;
63012;SDS011;62113;45.624;11.700;2023-06-22T14:19:48;13.98;;;5.55;;
63012;SDS011;62113;45.624;11.700;2023-06-22T14:22:14;14.15;;;5.65;;
63012;SDS011;62113;45.624;11.700;2023-06-22T14:24:40;8.80;;;5.55;;
63012;SDS011;62113;45.624;11.700;2023-06-22T14:27:06;11.30;;;5.63;;
63012;SDS011;62113;45.624;11.700;2023-06-22T14:29:33;10.35;;;6.07;;
63012;SDS011;62113;45.624;11.700;2023-06-22T14:31:59;15.23;;;5.20;;
63012;SDS011;62113;45.624;11.700;2023-06-22T14:34:25;23.73;;;5.95;;
63012;SDS011;62113;45.624;11.700;2023-06-22T14:36:50;13.73;;;5.38;;
63012;SDS011;62113;45.624;11.700;2023-06-22T14:39:16;11.98;;;5.22;;
63012;SDS011;62113;45.624;11.700;2023-06-22T14:41:41;14.13;;;5.00;;
63012;SDS011;62113;45.624;11.700;2023-06-22T14:44:07;13.55;;;5.28;;
63012;SDS011;62113;45.624;11.700;2023-06-22T14:46:33;13.63;;;5.72;;
63012;SDS011;62113;45.624;11.700;2023-06-22T14:48:58;22.33;;;5.88;;
63012;SDS011;62113;45.624;11.700;2023-06-22T14:51:24;14.50;;;5.55;;
63012;SDS011;62113;45.624;11.700;2023-06-22T14:53:50;13.73;;;5.28;;
63012;SDS011;62113;45.624;11.700;2023-06-22T14:56:15;16.48;;;5.63;;
63012;SDS011;62113;45.624;11.700;2023-06-22T14:58:41;15.48;;;5.53;;